LFBG/CNG METAR and TAF weather

Enter ICAO airport designator
Station Type Date Time Source
LFBG METAR 2022/05/23 14:30 UTC NOAA

LFBG 231430Z AUTO 26016KT 9999 BKN036 BKN054 BKN066 21/12 Q1009 TEMPO 4000 SHRA SCT018TCU


Station Type Date Time Source
LFBG Decoded METAR 2022/05/23 14:30 UTC NOAA

Cognac, France (LFBG) 45-40N 000-19W 31M
May 23, 2022 - 10:30 AM EDT / 2022.05.23 1430 UTC
Wind: from the W (260 degrees) at 18 MPH (16 KT):0
Visibility: greater than 7 mile(s):0
Sky conditions: mostly cloudy
Weather: Towering cumulus clouds observed
Temperature: 69 F (21 C)
Dew Point: 53 F (12 C)
Relative Humidity: 56%
Pressure (altimeter): 29.80 in. Hg (1009 hPa)
ob: LFBG 231430Z AUTO 26016KT 9999 BKN036 BKN054 BKN066 21/12 Q1009 TEMPO 4000 SHRA SCT018TCU
cycle: 14

Station Type Date Time Source
LFBG TAF 2022/05/23 09:48 UTC NOAA

TAF LFBG 230800Z 2309/2409 23015KT 9999 BKN015 BKN025 BKN050
TEMPO 2313/2321 4000 SHRA SCT018TCU
BECMG 2321/2323 CAVOK
TEMPO 2323/2409 -SHRA SCT020TCU

Example: see airport list